sensor_id;sensor_type;location;lat;lon;timestamp;temperature;humidity
66506;HTU21D;53332;51.082;5.832;2023-08-31T00:00:41;14.73;118.99
66506;HTU21D;53332;51.082;5.832;2023-08-31T00:03:07;14.72;118.99
66506;HTU21D;53332;51.082;5.832;2023-08-31T00:05:43;14.73;118.99
66506;HTU21D;53332;51.082;5.832;2023-08-31T00:08:09;14.73;118.99
66506;HTU21D;53332;51.082;5.832;2023-08-31T00:10:37;14.69;118.99
66506;HTU21D;53332;51.082;5.832;2023-08-31T00:13:03;14.66;118.99
66506;HTU21D;53332;51.082;5.832;2023-08-31T00:15:29;14.64;118.99
66506;HTU21D;53332;51.082;5.832;2023-08-31T00:17:58;14.58;118.99
66506;HTU21D;53332;51.082;5.832;2023-08-31T00:20:23;14.58;118.99
66506;HTU21D;53332;51.082;5.832;2023-08-31T00:22:49;14.57;118.99
66506;HTU21D;53332;51.082;5.832;2023-08-31T00:25:15;14.56;118.99
66506;HTU21D;53332;51.082;5.832;2023-08-31T00:27:40;14.53;118.99
66506;HTU21D;53332;51.082;5.832;2023-08-31T00:30:07;14.53;118.99
66506;HTU21D;53332;51.082;5.832;2023-08-31T00:32:37;14.49;118.99
66506;HTU21D;53332;51.082;5.832;2023-08-31T00:35:05;14.49;118.99
66506;HTU21D;53332;51.082;5.832;2023-08-31T00:37:30;14.44;118.99
66506;HTU21D;53332;51.082;5.832;2023-08-31T00:39:55;14.42;118.99
66506;HTU21D;53332;51.082;5.832;2023-08-31T00:42:21;14.40;118.99
66506;HTU21D;53332;51.082;5.832;2023-08-31T00:44:47;14.37;118.99
66506;HTU21D;53332;51.082;5.832;2023-08-31T00:47:15;14.35;118.99
66506;HTU21D;53332;51.082;5.832;2023-08-31T00:49:41;14.32;118.99
66506;HTU21D;53332;51.082;5.832;2023-08-31T00:52:07;14.37;118.99
66506;HTU21D;53332;51.082;5.832;2023-08-31T00:54:34;14.34;118.99
66506;HTU21D;53332;51.082;5.832;2023-08-31T00:56:59;14.30;118.99
66506;HTU21D;53332;51.082;5.832;2023-08-31T00:59:25;14.30;118.99
66506;HTU21D;53332;51.082;5.832;2023-08-31T01:02:12;14.28;118.99
66506;HTU21D;53332;51.082;5.832;2023-08-31T01:05:29;14.27;118.99
66506;HTU21D;53332;51.082;5.832;2023-08-31T01:07:49;14.22;118.99
66506;HTU21D;53332;51.082;5.832;2023-08-31T01:10:43;14.23;118.99
66506;HTU21D;53332;51.082;5.832;2023-08-31T01:13:14;14.21;118.99
66506;HTU21D;53332;51.082;5.832;2023-08-31T01:15:54;14.20;118.99
66506;HTU21D;53332;51.082;5.832;2023-08-31T01:18:23;14.20;118.99
66506;HTU21D;53332;51.082;5.832;2023-08-31T01:23:43;14.13;118.99
66506;HTU21D;53332;51.082;5.832;2023-08-31T01:26:09;14.11;118.99
66506;HTU21D;53332;51.082;5.832;2023-08-31T01:28:35;14.09;118.99
66506;HTU21D;53332;51.082;5.832;2023-08-31T01:31:04;14.10;118.99
66506;HTU21D;53332;51.082;5.832;2023-08-31T01:33:31;14.06;118.99
66506;HTU21D;53332;51.082;5.832;2023-08-31T01:36:00;14.01;118.99
66506;HTU21D;53332;51.082;5.832;2023-08-31T01:38:32;13.97;118.99
66506;HTU21D;53332;51.082;5.832;2023-08-31T01:41:06;13.96;118.99
66506;HTU21D;53332;51.082;5.832;2023-08-31T01:43:33;13.93;118.99
66506;HTU21D;53332;51.082;5.832;2023-08-31T01:46:00;13.90;118.99
66506;HTU21D;53332;51.082;5.832;2023-08-31T01:48:26;13.86;118.99
66506;HTU21D;53332;51.082;5.832;2023-08-31T01:50:51;13.86;118.99
66506;HTU21D;53332;51.082;5.832;2023-08-31T01:53:17;13.88;118.99
66506;HTU21D;53332;51.082;5.832;2023-08-31T01:55:42;13.89;118.99
66506;HTU21D;53332;51.082;5.832;2023-08-31T01:58:08;13.88;118.99
66506;HTU21D;53332;51.082;5.832;2023-08-31T02:00:33;13.88;118.99
66506;HTU21D;53332;51.082;5.832;2023-08-31T02:03:01;13.89;118.99
66506;HTU21D;53332;51.082;5.832;2023-08-31T02:05:26;13.88;118.99
66506;HTU21D;53332;51.082;5.832;2023-08-31T02:07:52;13.86;118.99
66506;HTU21D;53332;51.082;5.832;2023-08-31T02:10:17;13.88;118.99
66506;HTU21D;53332;51.082;5.832;2023-08-31T02:12:43;13.85;118.99
66506;HTU21D;53332;51.082;5.832;2023-08-31T02:15:09;13.86;118.99
66506;HTU21D;53332;51.082;5.832;2023-08-31T02:17:35;13.84;118.99
66506;HTU21D;53332;51.082;5.832;2023-08-31T02:20:00;13.84;118.99
66506;HTU21D;53332;51.082;5.832;2023-08-31T02:22:35;13.84;118.99
66506;HTU21D;53332;51.082;5.832;2023-08-31T02:25:01;13.84;118.99
66506;HTU21D;53332;51.082;5.832;2023-08-31T02:27:27;13.82;118.99
66506;HTU21D;53332;51.082;5.832;2023-08-31T02:29:52;13.81;118.99
66506;HTU21D;53332;51.082;5.832;2023-08-31T02:32:19;13.80;118.99
66506;HTU21D;53332;51.082;5.832;2023-08-31T02:34:44;13.77;118.99
66506;HTU21D;53332;51.082;5.832;2023-08-31T02:37:10;13.76;118.99
66506;HTU21D;53332;51.082;5.832;2023-08-31T02:39:36;13.77;118.99
66506;HTU21D;53332;51.082;5.832;2023-08-31T02:42:01;13.78;118.99
66506;HTU21D;53332;51.082;5.832;2023-08-31T02:44:27;13.75;118.99
66506;HTU21D;53332;51.082;5.832;2023-08-31T02:46:52;13.74;118.99
66506;HTU21D;53332;51.082;5.832;2023-08-31T02:49:18;13.73;118.99
66506;HTU21D;53332;51.082;5.832;2023-08-31T02:51:43;13.80;118.99
66506;HTU21D;53332;51.082;5.832;2023-08-31T02:54:09;13.78;118.99
66506;HTU21D;53332;51.082;5.832;2023-08-31T02:56:34;13.77;118.99
66506;HTU21D;53332;51.082;5.832;2023-08-31T02:59:00;13.75;118.99
66506;HTU21D;53332;51.082;5.832;2023-08-31T03:01:25;13.77;118.99
66506;HTU21D;53332;51.082;5.832;2023-08-31T03:03:51;13.76;118.99
66506;HTU21D;53332;51.082;5.832;2023-08-31T03:06:17;13.77;118.99
66506;HTU21D;53332;51.082;5.832;2023-08-31T03:08:42;13.76;118.99
66506;HTU21D;53332;51.082;5.832;2023-08-31T03:11:08;13.78;118.99
66506;HTU21D;53332;51.082;5.832;2023-08-31T03:13:34;13.76;118.99
66506;HTU21D;53332;51.082;5.832;2023-08-31T03:16:00;13.78;118.99
66506;HTU21D;53332;51.082;5.832;2023-08-31T03:18:26;13.79;118.99
66506;HTU21D;53332;51.082;5.832;2023-08-31T03:20:52;13.79;118.99
66506;HTU21D;53332;51.082;5.832;2023-08-31T03:23:18;13.80;118.99
66506;HTU21D;53332;51.082;5.832;2023-08-31T03:25:43;13.82;118.99
66506;HTU21D;53332;51.082;5.832;2023-08-31T03:28:09;13.83;118.99
66506;HTU21D;53332;51.082;5.832;2023-08-31T03:30:35;13.83;118.99
66506;HTU21D;53332;51.082;5.832;2023-08-31T03:33:00;13.80;118.99
66506;HTU21D;53332;51.082;5.832;2023-08-31T03:35:26;13.77;118.99
66506;HTU21D;53332;51.082;5.832;2023-08-31T03:37:53;13.79;118.99
66506;HTU21D;53332;51.082;5.832;2023-08-31T03:40:18;13.74;118.99
66506;HTU21D;53332;51.082;5.832;2023-08-31T03:42:44;13.70;118.99
66506;HTU21D;53332;51.082;5.832;2023-08-31T03:45:10;13.68;118.99
66506;HTU21D;53332;51.082;5.832;2023-08-31T03:47:35;13.66;118.99
66506;HTU21D;53332;51.082;5.832;2023-08-31T03:50:01;13.64;118.99
66506;HTU21D;53332;51.082;5.832;2023-08-31T03:52:26;13.62;118.99
66506;HTU21D;53332;51.082;5.832;2023-08-31T03:54:52;13.62;118.99
66506;HTU21D;53332;51.082;5.832;2023-08-31T03:57:18;13.62;118.99
66506;HTU21D;53332;51.082;5.832;2023-08-31T03:59:43;13.64;118.99
66506;HTU21D;53332;51.082;5.832;2023-08-31T04:02:09;13.65;118.99
66506;HTU21D;53332;51.082;5.832;2023-08-31T04:04:34;13.64;118.99
66506;HTU21D;53332;51.082;5.832;2023-08-31T04:07:00;13.61;118.99
66506;HTU21D;53332;51.082;5.832;2023-08-31T04:09:25;13.61;118.99
66506;HTU21D;53332;51.082;5.832;2023-08-31T04:11:51;13.62;118.99
66506;HTU21D;53332;51.082;5.832;2023-08-31T04:14:16;13.63;118.99
66506;HTU21D;53332;51.082;5.832;2023-08-31T04:16:44;13.63;118.99
66506;HTU21D;53332;51.082;5.832;2023-08-31T04:19:10;13.65;118.99
66506;HTU21D;53332;51.082;5.832;2023-08-31T04:21:35;13.67;118.99
66506;HTU21D;53332;51.082;5.832;2023-08-31T04:24:02;13.69;118.99
66506;HTU21D;53332;51.082;5.832;2023-08-31T04:26:27;13.69;118.99
66506;HTU21D;53332;51.082;5.832;2023-08-31T04:28:53;13.68;118.99
66506;HTU21D;53332;51.082;5.832;2023-08-31T04:31:18;13.68;118.99
66506;HTU21D;53332;51.082;5.832;2023-08-31T04:33:45;13.65;118.99
66506;HTU21D;53332;51.082;5.832;2023-08-31T04:36:10;13.63;118.99
66506;HTU21D;53332;51.082;5.832;2023-08-31T04:38:37;13.60;118.99
66506;HTU21D;53332;51.082;5.832;2023-08-31T04:41:03;13.60;118.99
66506;HTU21D;53332;51.082;5.832;2023-08-31T04:43:29;13.61;118.99
66506;HTU21D;53332;51.082;5.832;2023-08-31T04:45:55;13.60;118.99
66506;HTU21D;53332;51.082;5.832;2023-08-31T04:48:21;13.60;118.99
66506;HTU21D;53332;51.082;5.832;2023-08-31T04:50:47;13.63;118.99
66506;HTU21D;53332;51.082;5.832;2023-08-31T04:53:13;13.63;118.99
66506;HTU21D;53332;51.082;5.832;2023-08-31T04:55:39;13.61;118.99
66506;HTU21D;53332;51.082;5.832;2023-08-31T04:58:04;13.61;118.99
66506;HTU21D;53332;51.082;5.832;2023-08-31T05:00:30;13.60;118.99
66506;HTU21D;53332;51.082;5.832;2023-08-31T05:02:56;13.59;118.99
66506;HTU21D;53332;51.082;5.832;2023-08-31T05:05:22;13.59;118.99
66506;HTU21D;53332;51.082;5.832;2023-08-31T05:07:47;13.59;118.99
66506;HTU21D;53332;51.082;5.832;2023-08-31T05:10:13;13.61;118.99
66506;HTU21D;53332;51.082;5.832;2023-08-31T05:12:38;13.59;118.99
66506;HTU21D;53332;51.082;5.832;2023-08-31T05:15:05;13.60;118.99
66506;HTU21D;53332;51.082;5.832;2023-08-31T05:17:30;13.63;118.99
66506;HTU21D;53332;51.082;5.832;2023-08-31T05:19:56;13.63;118.99
66506;HTU21D;53332;51.082;5.832;2023-08-31T05:22:21;13.62;118.99
66506;HTU21D;53332;51.082;5.832;2023-08-31T05:24:48;13.62;118.99
66506;HTU21D;53332;51.082;5.832;2023-08-31T05:27:13;13.64;118.99
66506;HTU21D;53332;51.082;5.832;2023-08-31T05:29:38;13.65;118.99
66506;HTU21D;53332;51.082;5.832;2023-08-31T05:32:04;13.68;118.99
66506;HTU21D;53332;51.082;5.832;2023-08-31T05:34:30;13.69;118.99
66506;HTU21D;53332;51.082;5.832;2023-08-31T05:36:58;13.74;118.99
66506;HTU21D;53332;51.082;5.832;2023-08-31T05:39:24;13.77;118.99
66506;HTU21D;53332;51.082;5.832;2023-08-31T05:41:49;13.78;118.99
66506;HTU21D;53332;51.082;5.832;2023-08-31T05:44:15;13.83;118.99
66506;HTU21D;53332;51.082;5.832;2023-08-31T05:46:41;13.88;118.99
66506;HTU21D;53332;51.082;5.832;2023-08-31T05:49:06;13.93;118.99
66506;HTU21D;53332;51.082;5.832;2023-08-31T05:51:32;13.97;118.99
66506;HTU21D;53332;51.082;5.832;2023-08-31T05:53:58;14.04;118.99
66506;HTU21D;53332;51.082;5.832;2023-08-31T05:56:23;14.07;118.99
66506;HTU21D;53332;51.082;5.832;2023-08-31T05:58:49;14.08;118.99
66506;HTU21D;53332;51.082;5.832;2023-08-31T06:01:15;14.11;118.99
66506;HTU21D;53332;51.082;5.832;2023-08-31T06:03:41;14.18;118.99
66506;HTU21D;53332;51.082;5.832;2023-08-31T06:06:07;14.22;118.99
66506;HTU21D;53332;51.082;5.832;2023-08-31T06:08:32;14.27;118.99
66506;HTU21D;53332;51.082;5.832;2023-08-31T06:11:01;14.27;118.99
66506;HTU21D;53332;51.082;5.832;2023-08-31T06:13:26;14.29;118.99
66506;HTU21D;53332;51.082;5.832;2023-08-31T06:15:53;14.37;118.99
66506;HTU21D;53332;51.082;5.832;2023-08-31T06:18:20;14.38;118.99
66506;HTU21D;53332;51.082;5.832;2023-08-31T06:20:46;14.43;118.99
66506;HTU21D;53332;51.082;5.832;2023-08-31T06:23:13;14.49;118.99
66506;HTU21D;53332;51.082;5.832;2023-08-31T06:25:39;14.54;118.99
66506;HTU21D;53332;51.082;5.832;2023-08-31T06:28:05;14.62;118.99
66506;HTU21D;53332;51.082;5.832;2023-08-31T06:30:34;14.68;118.99
66506;HTU21D;53332;51.082;5.832;2023-08-31T06:32:59;14.75;118.99
66506;HTU21D;53332;51.082;5.832;2023-08-31T06:35:25;14.82;118.99
66506;HTU21D;53332;51.082;5.832;2023-08-31T06:37:50;14.91;118.99
66506;HTU21D;53332;51.082;5.832;2023-08-31T06:40:16;15.01;118.99
66506;HTU21D;53332;51.082;5.832;2023-08-31T06:42:42;15.13;118.99
66506;HTU21D;53332;51.082;5.832;2023-08-31T06:45:08;15.25;118.99
66506;HTU21D;53332;51.082;5.832;2023-08-31T06:47:35;15.45;118.99
66506;HTU21D;53332;51.082;5.832;2023-08-31T06:50:01;15.72;118.99
66506;HTU21D;53332;51.082;5.832;2023-08-31T06:52:27;16.06;118.99
66506;HTU21D;53332;51.082;5.832;2023-08-31T06:54:52;16.30;118.99
66506;HTU21D;53332;51.082;5.832;2023-08-31T06:57:23;16.57;118.99
66506;HTU21D;53332;51.082;5.832;2023-08-31T06:59:49;16.85;118.99
66506;HTU21D;53332;51.082;5.832;2023-08-31T07:02:14;17.07;118.99
66506;HTU21D;53332;51.082;5.832;2023-08-31T07:04:40;17.26;118.99
66506;HTU21D;53332;51.082;5.832;2023-08-31T07:07:06;17.38;118.99
66506;HTU21D;53332;51.082;5.832;2023-08-31T07:09:31;17.48;118.61
66506;HTU21D;53332;51.082;5.832;2023-08-31T07:11:57;17.49;116.69
66506;HTU21D;53332;51.082;5.832;2023-08-31T07:14:23;17.50;116.06
66506;HTU21D;53332;51.082;5.832;2023-08-31T07:16:49;17.51;113.96
66506;HTU21D;53332;51.082;5.832;2023-08-31T07:19:15;17.53;113.48
66506;HTU21D;53332;51.082;5.832;2023-08-31T07:21:41;17.62;113.04
66506;HTU21D;53332;51.082;5.832;2023-08-31T07:24:06;17.69;112.54
66506;HTU21D;53332;51.082;5.832;2023-08-31T07:26:32;17.77;112.20
66506;HTU21D;53332;51.082;5.832;2023-08-31T07:28:58;17.94;111.35
66506;HTU21D;53332;51.082;5.832;2023-08-31T07:31:23;18.11;110.21
66506;HTU21D;53332;51.082;5.832;2023-08-31T07:33:49;18.24;108.75
66506;HTU21D;53332;51.082;5.832;2023-08-31T07:36:14;18.35;107.72
66506;HTU21D;53332;51.082;5.832;2023-08-31T07:38:40;18.35;106.74
66506;HTU21D;53332;51.082;5.832;2023-08-31T07:41:06;18.37;106.98
66506;HTU21D;53332;51.082;5.832;2023-08-31T07:43:31;18.44;106.72
66506;HTU21D;53332;51.082;5.832;2023-08-31T07:45:57;18.48;105.30
66506;HTU21D;53332;51.082;5.832;2023-08-31T07:48:23;18.54;105.21
66506;HTU21D;53332;51.082;5.832;2023-08-31T07:50:48;18.52;104.63
66506;HTU21D;53332;51.082;5.832;2023-08-31T07:53:14;18.61;104.92
66506;HTU21D;53332;51.082;5.832;2023-08-31T07:55:40;18.65;103.47
66506;HTU21D;53332;51.082;5.832;2023-08-31T07:58:06;18.49;102.70
66506;HTU21D;53332;51.082;5.832;2023-08-31T08:00:31;18.27;103.76
66506;HTU21D;53332;51.082;5.832;2023-08-31T08:02:57;18.15;104.50
66506;HTU21D;53332;51.082;5.832;2023-08-31T08:05:22;18.12;105.20
66506;HTU21D;53332;51.082;5.832;2023-08-31T08:07:48;18.20;105.49
66506;HTU21D;53332;51.082;5.832;2023-08-31T08:10:14;18.25;105.60
66506;HTU21D;53332;51.082;5.832;2023-08-31T08:12:41;18.34;105.01
66506;HTU21D;53332;51.082;5.832;2023-08-31T08:15:08;18.48;104.88
66506;HTU21D;53332;51.082;5.832;2023-08-31T08:17:34;18.68;103.67
66506;HTU21D;53332;51.082;5.832;2023-08-31T08:20:00;18.80;102.51
66506;HTU21D;53332;51.082;5.832;2023-08-31T08:22:25;18.89;101.70
66506;HTU21D;53332;51.082;5.832;2023-08-31T08:24:51;19.00;101.89
66506;HTU21D;53332;51.082;5.832;2023-08-31T08:27:16;19.20;101.40
66506;HTU21D;53332;51.082;5.832;2023-08-31T08:29:46;19.38;100.24
66506;HTU21D;53332;51.082;5.832;2023-08-31T08:32:12;19.51;99.65
66506;HTU21D;53332;51.082;5.832;2023-08-31T08:34:38;19.61;98.87
66506;HTU21D;53332;51.082;5.832;2023-08-31T08:37:04;19.74;98.64
66506;HTU21D;53332;51.082;5.832;2023-08-31T08:39:30;19.90;96.72
66506;HTU21D;53332;51.082;5.832;2023-08-31T08:41:58;19.88;95.16
66506;HTU21D;53332;51.082;5.832;2023-08-31T08:44:32;19.81;95.03
66506;HTU21D;53332;51.082;5.832;2023-08-31T08:47:00;19.98;94.90
66506;HTU21D;53332;51.082;5.832;2023-08-31T08:49:26;20.02;94.21
66506;HTU21D;53332;51.082;5.832;2023-08-31T08:51:53;20.00;92.10
66506;HTU21D;53332;51.082;5.832;2023-08-31T08:54:20;19.89;92.72
66506;HTU21D;53332;51.082;5.832;2023-08-31T08:56:47;20.05;92.96
66506;HTU21D;53332;51.082;5.832;2023-08-31T08:59:13;20.20;91.51
66506;HTU21D;53332;51.082;5.832;2023-08-31T09:01:39;20.34;90.84
66506;HTU21D;53332;51.082;5.832;2023-08-31T09:04:05;20.43;90.39
66506;HTU21D;53332;51.082;5.832;2023-08-31T09:06:32;20.42;89.70
66506;HTU21D;53332;51.082;5.832;2023-08-31T09:08:58;20.48;90.12
66506;HTU21D;53332;51.082;5.832;2023-08-31T09:11:24;20.72;90.47
66506;HTU21D;53332;51.082;5.832;2023-08-31T09:13:51;20.83;88.78
66506;HTU21D;53332;51.082;5.832;2023-08-31T09:16:24;20.91;88.76
66506;HTU21D;53332;51.082;5.832;2023-08-31T09:18:51;21.00;88.06
66506;HTU21D;53332;51.082;5.832;2023-08-31T09:21:17;20.93;88.68
66506;HTU21D;53332;51.082;5.832;2023-08-31T09:23:47;20.94;88.48
66506;HTU21D;53332;51.082;5.832;2023-08-31T09:26:13;20.88;87.80
66506;HTU21D;53332;51.082;5.832;2023-08-31T09:28:41;20.71;88.07
66506;HTU21D;53332;51.082;5.832;2023-08-31T09:31:07;20.66;88.25
66506;HTU21D;53332;51.082;5.832;2023-08-31T09:33:35;20.72;88.01
66506;HTU21D;53332;51.082;5.832;2023-08-31T09:36:01;20.78;87.61
66506;HTU21D;53332;51.082;5.832;2023-08-31T09:38:29;20.88;87.48
66506;HTU21D;53332;51.082;5.832;2023-08-31T09:41:05;21.03;85.35
66506;HTU21D;53332;51.082;5.832;2023-08-31T09:43:31;21.06;84.36
66506;HTU21D;53332;51.082;5.832;2023-08-31T09:45:59;21.18;84.96
66506;HTU21D;53332;51.082;5.832;2023-08-31T09:48:26;21.27;84.09
66506;HTU21D;53332;51.082;5.832;2023-08-31T09:50:52;21.19;83.97
66506;HTU21D;53332;51.082;5.832;2023-08-31T09:53:20;21.07;83.65
66506;HTU21D;53332;51.082;5.832;2023-08-31T09:55:47;20.91;84.76
66506;HTU21D;53332;51.082;5.832;2023-08-31T09:58:19;20.79;84.55
66506;HTU21D;53332;51.082;5.832;2023-08-31T10:00:52;20.72;84.39
66506;HTU21D;53332;51.082;5.832;2023-08-31T10:03:18;20.73;85.84
66506;HTU21D;53332;51.082;5.832;2023-08-31T10:05:48;20.74;85.96
66506;HTU21D;53332;51.082;5.832;2023-08-31T10:08:15;20.80;86.22
66506;HTU21D;53332;51.082;5.832;2023-08-31T10:10:41;20.83;85.77
66506;HTU21D;53332;51.082;5.832;2023-08-31T10:13:07;20.90;85.18
66506;HTU21D;53332;51.082;5.832;2023-08-31T10:15:37;20.99;84.55
66506;HTU21D;53332;51.082;5.832;2023-08-31T10:18:04;20.89;84.05
66506;HTU21D;53332;51.082;5.832;2023-08-31T10:20:31;20.88;83.81
66506;HTU21D;53332;51.082;5.832;2023-08-31T10:22:58;20.89;83.58
66506;HTU21D;53332;51.082;5.832;2023-08-31T10:25:24;20.90;82.35
66506;HTU21D;53332;51.082;5.832;2023-08-31T10:27:52;20.91;81.35
66506;HTU21D;53332;51.082;5.832;2023-08-31T10:33:22;21.09;80.68
66506;HTU21D;53332;51.082;5.832;2023-08-31T10:35:48;21.53;79.21
66506;HTU21D;53332;51.082;5.832;2023-08-31T10:38:30;21.59;77.76
66506;HTU21D;53332;51.082;5.832;2023-08-31T10:43:52;21.81;75.83
66506;HTU21D;53332;51.082;5.832;2023-08-31T10:51:37;22.21;73.03
66506;HTU21D;53332;51.082;5.832;2023-08-31T10:59:24;22.20;70.97
66506;HTU21D;53332;51.082;5.832;2023-08-31T11:01:54;22.03;72.31
66506;HTU21D;53332;51.082;5.832;2023-08-31T11:04:24;22.40;70.02
66506;HTU21D;53332;51.082;5.832;2023-08-31T11:07:13;23.11;66.07
66506;HTU21D;53332;51.082;5.832;2023-08-31T11:09:39;22.84;68.33
66506;HTU21D;53332;51.082;5.832;2023-08-31T11:12:05;23.34;65.57
66506;HTU21D;53332;51.082;5.832;2023-08-31T11:14:31;23.32;64.73
66506;HTU21D;53332;51.082;5.832;2023-08-31T11:16:57;22.91;67.00
66506;HTU21D;53332;51.082;5.832;2023-08-31T11:19:22;22.33;66.44
66506;HTU21D;53332;51.082;5.832;2023-08-31T11:21:48;21.90;71.14
66506;HTU21D;53332;51.082;5.832;2023-08-31T11:24:15;21.72;72.77
66506;HTU21D;53332;51.082;5.832;2023-08-31T11:26:41;21.50;73.38
66506;HTU21D;53332;51.082;5.832;2023-08-31T11:29:07;21.76;71.58
66506;HTU21D;53332;51.082;5.832;2023-08-31T11:31:38;21.47;73.09
66506;HTU21D;53332;51.082;5.832;2023-08-31T11:34:05;21.20;74.39
66506;HTU21D;53332;51.082;5.832;2023-08-31T11:36:31;21.02;75.95
66506;HTU21D;53332;51.082;5.832;2023-08-31T11:38:57;20.86;77.06
66506;HTU21D;53332;51.082;5.832;2023-08-31T11:41:23;20.73;78.33
66506;HTU21D;53332;51.082;5.832;2023-08-31T11:43:49;20.66;78.24
66506;HTU21D;53332;51.082;5.832;2023-08-31T11:46:17;20.59;78.93
66506;HTU21D;53332;51.082;5.832;2023-08-31T11:48:43;20.66;78.41
66506;HTU21D;53332;51.082;5.832;2023-08-31T11:51:11;21.20;75.64
66506;HTU21D;53332;51.082;5.832;2023-08-31T11:53:37;21.93;71.43
66506;HTU21D;53332;51.082;5.832;2023-08-31T11:56:03;22.66;68.03
66506;HTU21D;53332;51.082;5.832;2023-08-31T11:58:29;23.23;64.50
66506;HTU21D;53332;51.082;5.832;2023-08-31T12:00:58;23.62;61.92
66506;HTU21D;53332;51.082;5.832;2023-08-31T12:03:24;24.09;60.35
66506;HTU21D;53332;51.082;5.832;2023-08-31T12:05:52;24.47;58.25
66506;HTU21D;53332;51.082;5.832;2023-08-31T12:08:27;24.91;56.05
66506;HTU21D;53332;51.082;5.832;2023-08-31T12:10:53;24.99;55.63
66506;HTU21D;53332;51.082;5.832;2023-08-31T12:13:19;25.04;55.65
66506;HTU21D;53332;51.082;5.832;2023-08-31T12:15:46;25.09;54.40
66506;HTU21D;53332;51.082;5.832;2023-08-31T12:18:13;25.07;54.39
66506;HTU21D;53332;51.082;5.832;2023-08-31T12:20:51;25.08;53.68
66506;HTU21D;53332;51.082;5.832;2023-08-31T12:23:17;24.85;53.57
66506;HTU21D;53332;51.082;5.832;2023-08-31T12:25:50;24.78;53.80
66506;HTU21D;53332;51.082;5.832;2023-08-31T12:28:17;24.77;53.49
66506;HTU21D;53332;51.082;5.832;2023-08-31T12:30:50;24.53;53.97
66506;HTU21D;53332;51.082;5.832;2023-08-31T12:33:17;24.25;55.03
66506;HTU21D;53332;51.082;5.832;2023-08-31T12:35:43;23.79;56.90
66506;HTU21D;53332;51.082;5.832;2023-08-31T12:38:08;23.26;58.67
66506;HTU21D;53332;51.082;5.832;2023-08-31T12:40:34;23.10;60.02
66506;HTU21D;53332;51.082;5.832;2023-08-31T12:43:00;23.18;60.31
66506;HTU21D;53332;51.082;5.832;2023-08-31T12:45:25;23.12;60.55
66506;HTU21D;53332;51.082;5.832;2023-08-31T12:47:51;22.84;60.72
66506;HTU21D;53332;51.082;5.832;2023-08-31T12:50:16;22.56;61.65
66506;HTU21D;53332;51.082;5.832;2023-08-31T12:52:43;22.31;62.06
66506;HTU21D;53332;51.082;5.832;2023-08-31T12:55:14;22.05;63.30
66506;HTU21D;53332;51.082;5.832;2023-08-31T12:57:41;21.92;64.01
66506;HTU21D;53332;51.082;5.832;2023-08-31T13:00:08;22.06;64.46
66506;HTU21D;53332;51.082;5.832;2023-08-31T13:02:40;22.39;63.71
66506;HTU21D;53332;51.082;5.832;2023-08-31T13:05:07;22.71;63.79
66506;HTU21D;53332;51.082;5.832;2023-08-31T13:07:36;22.95;63.84
66506;HTU21D;53332;51.082;5.832;2023-08-31T13:10:03;23.12;62.63
66506;HTU21D;53332;51.082;5.832;2023-08-31T13:12:33;23.17;60.99
66506;HTU21D;53332;51.082;5.832;2023-08-31T13:14:59;23.05;59.67
66506;HTU21D;53332;51.082;5.832;2023-08-31T13:17:25;22.81;61.38
66506;HTU21D;53332;51.082;5.832;2023-08-31T13:19:56;22.72;62.46
66506;HTU21D;53332;51.082;5.832;2023-08-31T13:22:23;22.55;63.57
66506;HTU21D;53332;51.082;5.832;2023-08-31T13:24:50;22.36;63.98
66506;HTU21D;53332;51.082;5.832;2023-08-31T13:27:15;22.16;64.75
66506;HTU21D;53332;51.082;5.832;2023-08-31T13:29:42;22.04;66.04
66506;HTU21D;53332;51.082;5.832;2023-08-31T13:32:08;21.99;66.72
66506;HTU21D;53332;51.082;5.832;2023-08-31T13:34:34;22.22;66.78
66506;HTU21D;53332;51.082;5.832;2023-08-31T13:36:59;22.38;67.17
66506;HTU21D;53332;51.082;5.832;2023-08-31T13:39:28;22.55;66.19
66506;HTU21D;53332;51.082;5.832;2023-08-31T13:41:53;22.63;65.68
66506;HTU21D;53332;51.082;5.832;2023-08-31T13:44:22;22.61;65.44
66506;HTU21D;53332;51.082;5.832;2023-08-31T13:46:48;22.56;65.68
66506;HTU21D;53332;51.082;5.832;2023-08-31T13:49:13;22.52;66.08
66506;HTU21D;53332;51.082;5.832;2023-08-31T13:51:40;22.43;66.01
66506;HTU21D;53332;51.082;5.832;2023-08-31T13:54:06;22.61;66.57
66506;HTU21D;53332;51.082;5.832;2023-08-31T13:56:33;22.66;65.78
66506;HTU21D;53332;51.082;5.832;2023-08-31T13:58:58;22.49;65.46
66506;HTU21D;53332;51.082;5.832;2023-08-31T14:01:25;22.42;64.75
66506;HTU21D;53332;51.082;5.832;2023-08-31T14:03:50;22.48;65.02
66506;HTU21D;53332;51.082;5.832;2023-08-31T14:06:16;22.50;65.30
66506;HTU21D;53332;51.082;5.832;2023-08-31T14:08:41;22.36;65.27
66506;HTU21D;53332;51.082;5.832;2023-08-31T14:11:07;22.34;65.82
66506;HTU21D;53332;51.082;5.832;2023-08-31T14:13:33;22.35;65.40
66506;HTU21D;53332;51.082;5.832;2023-08-31T14:15:59;22.34;64.48
66506;HTU21D;53332;51.082;5.832;2023-08-31T14:18:26;22.34;64.49
66506;HTU21D;53332;51.082;5.832;2023-08-31T14:20:53;22.37;64.46
66506;HTU21D;53332;51.082;5.832;2023-08-31T14:23:19;22.47;64.79
66506;HTU21D;53332;51.082;5.832;2023-08-31T14:25:44;22.44;63.44
66506;HTU21D;53332;51.082;5.832;2023-08-31T14:28:10;22.32;63.76
66506;HTU21D;53332;51.082;5.832;2023-08-31T14:30:36;22.24;64.66
66506;HTU21D;53332;51.082;5.832;2023-08-31T14:33:02;22.19;64.53
66506;HTU21D;53332;51.082;5.832;2023-08-31T14:35:28;22.13;63.65
66506;HTU21D;53332;51.082;5.832;2023-08-31T14:37:53;22.09;62.55
66506;HTU21D;53332;51.082;5.832;2023-08-31T14:40:19;21.99;62.05
66506;HTU21D;53332;51.082;5.832;2023-08-31T14:42:44;21.84;61.84
66506;HTU21D;53332;51.082;5.832;2023-08-31T14:45:10;21.69;62.28
66506;HTU21D;53332;51.082;5.832;2023-08-31T14:47:35;21.58;63.30
66506;HTU21D;53332;51.082;5.832;2023-08-31T14:50:01;21.47;63.43
66506;HTU21D;53332;51.082;5.832;2023-08-31T14:52:26;21.39;63.42
66506;HTU21D;53332;51.082;5.832;2023-08-31T14:54:52;21.30;64.53
66506;HTU21D;53332;51.082;5.832;2023-08-31T14:57:17;21.27;65.02
66506;HTU21D;53332;51.082;5.832;2023-08-31T14:59:44;21.24;65.87
66506;HTU21D;53332;51.082;5.832;2023-08-31T15:02:09;21.23;66.66
66506;HTU21D;53332;51.082;5.832;2023-08-31T15:04:35;21.19;67.03
66506;HTU21D;53332;51.082;5.832;2023-08-31T15:07:00;21.14;67.97
66506;HTU21D;53332;51.082;5.832;2023-08-31T15:09:26;21.05;68.91
66506;HTU21D;53332;51.082;5.832;2023-08-31T15:11:52;20.99;69.56
66506;HTU21D;53332;51.082;5.832;2023-08-31T15:14:17;20.99;70.29
66506;HTU21D;53332;51.082;5.832;2023-08-31T15:16:43;21.03;70.38
66506;HTU21D;53332;51.082;5.832;2023-08-31T15:19:08;21.09;70.63
66506;HTU21D;53332;51.082;5.832;2023-08-31T15:21:34;21.17;70.36
66506;HTU21D;53332;51.082;5.832;2023-08-31T15:24:00;21.27;69.78